createdAt,value
2022-09-24T00:01:20.490Z,74.25
2022-09-24T00:04:18.941Z,70.00
2022-09-24T00:07:15.525Z,76.50
2022-09-24T00:10:12.865Z,74.75
2022-09-24T00:13:12.296Z,75.50
2022-09-24T00:16:11.585Z,67.00
2022-09-24T00:19:08.368Z,71.00
2022-09-24T00:22:06.002Z,77.50
2022-09-24T00:25:22.182Z,74.75
2022-09-24T00:28:19.316Z,73.00
2022-09-24T00:31:16.862Z,70.50
2022-09-24T00:34:13.915Z,75.75
2022-09-24T00:37:11.156Z,72.50
2022-09-24T00:40:09.593Z,76.25
2022-09-24T00:43:25.355Z,74.75
2022-09-24T00:46:41.712Z,75.25
2022-09-24T00:49:39.478Z,74.00
2022-09-24T00:52:40.413Z,75.75
2022-09-24T00:55:37.861Z,80.50
2022-09-24T00:58:34.822Z,75.25
2022-09-24T01:01:31.402Z,75.00
2022-09-24T01:04:29.526Z,75.00
2022-09-24T01:07:26.884Z,74.00
2022-09-24T01:10:51.005Z,74.00
2022-09-24T01:14:03.582Z,73.75
2022-09-24T01:17:19.494Z,79.33
2022-09-24T01:20:16.315Z,75.25
2022-09-24T01:23:25.747Z,76.00
2022-09-24T01:26:48.056Z,76.33
2022-09-24T01:29:58.536Z,77.00
2022-09-24T01:32:58.314Z,79.67
2022-09-24T01:35:57.382Z,75.00
2022-09-24T01:38:55.095Z,77.33
2022-09-24T01:41:52.720Z,80.00
2022-09-24T01:44:50.315Z,81.00
2022-09-24T01:47:47.958Z,78.00
2022-09-24T01:50:53.557Z,80.67
2022-09-24T01:53:50.567Z,82.67
2022-09-24T01:56:48.946Z,81.67
2022-09-24T02:00:02.354Z,79.75
2022-09-24T02:03:17.693Z,80.33
2022-09-24T02:06:30.478Z,81.33
2022-09-24T02:09:38.577Z,81.67
2022-09-24T02:12:38.094Z,81.33
2022-09-24T02:15:37.929Z,84.33
2022-09-24T02:18:36.476Z,83.00
2022-09-24T02:21:33.994Z,83.00
2022-09-24T02:24:34.674Z,83.00
2022-09-24T02:27:31.887Z,78.67
2022-09-24T02:30:29.117Z,81.00
2022-09-24T02:33:45.346Z,79.00
2022-09-24T02:36:43.286Z,80.50
2022-09-24T02:39:41.329Z,84.33
2022-09-24T02:42:39.362Z,83.00
2022-09-24T02:45:36.685Z,84.33
2022-09-24T02:48:33.581Z,85.00
2022-09-24T02:51:30.698Z,79.00
2022-09-24T02:54:27.703Z,85.33
2022-09-24T02:57:24.506Z,87.33
2022-09-24T03:00:21.881Z,86.67
2022-09-24T03:03:19.074Z,83.33
2022-09-24T03:06:16.024Z,84.33
2022-09-24T03:09:13.113Z,83.00
2022-09-24T03:12:10.913Z,81.33
2022-09-24T03:15:09.175Z,83.33
2022-09-24T03:18:05.953Z,85.33
2022-09-24T03:21:07.246Z,84.00
2022-09-24T03:24:04.956Z,84.33
2022-09-24T03:27:01.670Z,85.33
2022-09-24T03:30:17.152Z,80.33
2022-09-24T03:33:13.900Z,80.67
2022-09-24T03:36:17.399Z,81.33
2022-09-24T03:39:14.766Z,85.00
2022-09-24T03:42:11.719Z,88.67
2022-09-24T03:45:09.492Z,87.67
2022-09-24T03:48:07.068Z,85.00
2022-09-24T03:51:08.918Z,83.00
2022-09-24T03:54:05.983Z,85.33
2022-09-24T03:57:02.947Z,89.67
2022-09-24T03:59:59.880Z,88.33
2022-09-24T04:02:56.672Z,87.00
2022-09-24T04:05:53.953Z,85.33
2022-09-24T04:08:51.689Z,88.00
2022-09-24T04:11:48.803Z,80.00
2022-09-24T04:14:45.705Z,83.33
2022-09-24T04:17:42.672Z,87.00
2022-09-24T04:20:39.885Z,84.67
2022-09-24T04:23:36.815Z,89.00
2022-09-24T04:26:33.982Z,83.00
2022-09-24T04:29:31.123Z,85.67
2022-09-24T04:32:28.016Z,87.33
2022-09-24T04:35:25.229Z,85.33
2022-09-24T04:38:22.675Z,87.67
2022-09-24T04:41:20.706Z,80.33
2022-09-24T04:44:17.798Z,84.00
2022-09-24T04:47:15.151Z,84.00
2022-09-24T04:50:12.648Z,82.67
2022-09-24T04:53:10.037Z,84.33
2022-09-24T04:56:11.271Z,83.33
2022-09-24T04:59:08.918Z,85.33
2022-09-24T05:02:09.614Z,88.33
2022-09-24T05:05:07.231Z,84.67
2022-09-24T05:08:04.876Z,79.67
2022-09-24T05:11:02.567Z,87.25
2022-09-24T05:14:00.222Z,81.67
2022-09-24T05:16:56.982Z,82.67
2022-09-24T05:19:54.267Z,84.00
2022-09-24T05:22:51.774Z,81.50
2022-09-24T05:26:07.289Z,83.50
2022-09-24T05:29:05.045Z,82.00
2022-09-24T05:32:06.664Z,83.33
2022-09-24T05:35:04.223Z,81.33
2022-09-24T05:38:00.801Z,77.00
2022-09-24T05:40:58.121Z,82.50
2022-09-24T05:43:57.074Z,75.75
2022-09-24T05:46:53.991Z,72.75
2022-09-24T05:49:50.849Z,60.75
2022-09-24T05:52:47.921Z,60.00
2022-09-24T05:55:44.874Z,61.00
2022-09-24T05:58:41.685Z,61.25
2022-09-24T06:01:39.352Z,53.25
2022-09-24T06:04:37.017Z,65.25
2022-09-24T06:07:33.954Z,67.50
2022-09-24T06:10:31.013Z,47.50
2022-09-24T06:13:28.294Z,61.50
2022-09-24T06:16:24.953Z,62.00
2022-09-24T06:19:21.935Z,54.00
2022-09-24T06:22:18.789Z,62.00
2022-09-24T06:25:16.316Z,57.50
2022-09-24T06:28:13.966Z,52.75
2022-09-24T06:31:12.514Z,61.25
2022-09-24T06:34:10.247Z,45.50
2022-09-24T06:37:07.134Z,58.00
2022-09-24T06:40:04.265Z,41.00
2022-09-24T06:43:01.887Z,45.00
2022-09-24T06:45:59.549Z,49.75
2022-09-24T06:48:56.971Z,50.50
2022-09-24T06:51:57.000Z,55.00
2022-09-24T06:54:55.964Z,45.75
2022-09-24T06:58:09.721Z,48.33
2022-09-24T07:01:08.015Z,53.25
2022-09-24T07:04:05.240Z,53.00
2022-09-24T07:07:20.801Z,46.25
2022-09-24T07:10:18.011Z,55.50
2022-09-24T07:13:15.286Z,47.33
2022-09-24T07:16:13.076Z,46.25
2022-09-24T07:19:09.910Z,49.33
2022-09-24T07:22:06.747Z,47.50
2022-09-24T07:25:04.227Z,46.00
2022-09-24T07:28:04.858Z,34.75
2022-09-24T07:31:01.872Z,43.50
2022-09-24T07:33:58.634Z,41.50
2022-09-24T07:36:56.403Z,38.75
2022-09-24T07:39:53.943Z,42.50
2022-09-24T07:42:51.129Z,27.75
2022-09-24T07:45:49.119Z,34.00
2022-09-24T07:48:46.157Z,43.33
2022-09-24T07:51:43.310Z,31.50
2022-09-24T07:54:41.405Z,33.00
2022-09-24T07:57:39.414Z,34.50
2022-09-24T08:00:37.054Z,32.25
2022-09-24T08:03:34.230Z,36.25
2022-09-24T08:06:38.341Z,33.75
2022-09-24T08:09:37.191Z,28.25
2022-09-24T08:12:34.127Z,40.00
2022-09-24T08:15:31.229Z,33.00
2022-09-24T08:18:28.945Z,33.00
2022-09-24T08:21:26.238Z,24.75
2022-09-24T08:24:23.417Z,37.25
2022-09-24T08:27:21.140Z,31.75
2022-09-24T08:30:18.493Z,37.50
2022-09-24T08:33:16.263Z,30.25
2022-09-24T08:36:12.969Z,31.00
2022-09-24T08:39:10.640Z,20.75
2022-09-24T08:42:13.796Z,29.50
2022-09-24T08:45:29.350Z,28.50
2022-09-24T08:48:25.803Z,36.75
2022-09-24T08:51:23.299Z,29.25
2022-09-24T08:54:20.176Z,33.25
2022-09-24T08:57:18.096Z,27.25
2022-09-24T09:00:15.698Z,40.75
2022-09-24T09:03:30.949Z,30.75
2022-09-24T09:06:56.505Z,27.50
2022-09-24T09:10:28.331Z,29.75
2022-09-24T09:13:35.301Z,37.25
2022-09-24T09:17:30.735Z,32.40
2022-09-24T09:20:31.813Z,32.00
2022-09-24T09:23:47.755Z,31.25
2022-09-24T09:26:48.628Z,23.80
2022-09-24T09:29:51.381Z,31.60
2022-09-24T09:33:27.272Z,30.75
2022-09-24T09:36:26.718Z,33.80
2022-09-24T09:39:33.280Z,32.80
2022-09-24T09:42:36.248Z,31.00
2022-09-24T09:45:36.225Z,31.60
2022-09-24T09:48:45.311Z,39.00
2022-09-24T09:51:43.003Z,28.20
2022-09-24T09:54:42.072Z,33.00
2022-09-24T09:57:39.317Z,31.80
2022-09-24T10:00:36.580Z,30.40
2022-09-24T10:03:49.760Z,29.60
2022-09-24T10:06:47.257Z,29.40
2022-09-24T10:09:44.938Z,34.00
2022-09-24T10:12:42.250Z,34.20
2022-09-24T10:15:52.930Z,32.20
2022-09-24T10:18:50.385Z,32.60
2022-09-24T10:21:46.810Z,29.00
2022-09-24T10:24:44.172Z,28.40
2022-09-24T10:27:41.217Z,34.00
2022-09-24T10:30:38.232Z,29.00
2022-09-24T10:33:42.463Z,28.60
2022-09-24T10:36:38.842Z,32.25
2022-09-24T10:39:36.196Z,17.80
2022-09-24T10:42:33.143Z,31.60
2022-09-24T10:45:48.991Z,31.80
2022-09-24T10:48:53.636Z,26.60
2022-09-24T10:51:50.947Z,27.60
2022-09-24T10:55:27.143Z,33.80
2022-09-24T10:58:59.319Z,23.20
2022-09-24T11:02:20.690Z,22.80
2022-09-24T11:05:25.363Z,28.60
2022-09-24T11:08:41.692Z,30.60
2022-09-24T11:11:47.904Z,31.00
2022-09-24T11:14:57.864Z,26.60
2022-09-24T11:18:01.899Z,27.40
2022-09-24T11:21:20.392Z,21.60
2022-09-24T11:24:35.914Z,19.80
2022-09-24T11:27:48.758Z,21.60
2022-09-24T11:30:47.865Z,23.00
2022-09-24T11:34:23.198Z,24.40
2022-09-24T11:37:39.340Z,21.60
2022-09-24T11:41:00.600Z,22.40
2022-09-24T11:44:22.307Z,13.20
2022-09-24T11:47:39.266Z,17.40
2022-09-24T11:50:49.082Z,20.20
2022-09-24T11:53:58.045Z,18.20
2022-09-24T11:57:02.985Z,20.00
2022-09-24T12:00:12.061Z,18.20
2022-09-24T12:03:29.048Z,19.80
2022-09-24T12:06:35.826Z,18.80
2022-09-24T12:09:46.896Z,16.80
2022-09-24T12:12:44.265Z,20.00
2022-09-24T12:15:50.668Z,12.20
2022-09-24T12:19:01.851Z,13.40
2022-09-24T12:21:59.768Z,18.60
2022-09-24T12:24:59.301Z,15.80
2022-09-24T12:27:56.335Z,12.40
2022-09-24T12:31:13.478Z,17.00
2022-09-24T12:34:22.126Z,14.60
2022-09-24T12:37:23.618Z,8.80
2022-09-24T12:40:30.523Z,8.60
2022-09-24T12:43:51.509Z,15.20
2022-09-24T12:46:52.711Z,19.60
2022-09-24T12:50:01.385Z,18.00
2022-09-24T12:52:58.093Z,7.80
2022-09-24T12:56:01.411Z,20.80
2022-09-24T12:58:58.436Z,19.80
2022-09-24T13:01:55.706Z,17.80
2022-09-24T13:05:02.017Z,10.60
2022-09-24T13:08:08.066Z,14.60
2022-09-24T13:11:23.588Z,14.40
2022-09-24T13:14:21.933Z,10.00
2022-09-24T13:17:19.221Z,10.80
2022-09-24T13:20:19.409Z,3.20
2022-09-24T13:23:22.191Z,14.20
2022-09-24T13:26:24.744Z,13.20
2022-09-24T13:29:24.528Z,12.20
2022-09-24T13:32:21.273Z,14.20
2022-09-24T13:35:22.299Z,14.60
2022-09-24T13:38:27.396Z,15.40
2022-09-24T13:41:57.308Z,17.80
2022-09-24T13:44:59.318Z,13.00
2022-09-24T13:48:05.868Z,11.00
2022-09-24T13:51:04.365Z,20.20
2022-09-24T13:54:25.157Z,14.80
2022-09-24T13:57:26.873Z,18.60
2022-09-24T14:00:27.529Z,16.80
2022-09-24T14:03:27.067Z,14.80
2022-09-24T14:06:48.354Z,16.40
2022-09-24T14:09:47.757Z,17.80
2022-09-24T14:12:45.444Z,19.20
2022-09-24T14:16:09.280Z,10.00
2022-09-24T14:19:06.596Z,14.40
2022-09-24T14:22:03.982Z,9.40
2022-09-24T14:25:07.992Z,12.60
2022-09-24T14:28:05.415Z,13.00
2022-09-24T14:31:02.518Z,8.80
2022-09-24T14:34:00.722Z,14.60
2022-09-24T14:36:59.398Z,14.80
2022-09-24T14:40:13.707Z,11.40
2022-09-24T14:43:21.911Z,12.40
2022-09-24T14:46:22.543Z,16.60
2022-09-24T14:49:23.910Z,16.60
2022-09-24T14:52:40.286Z,25.00
2022-09-24T14:55:39.176Z,19.20
2022-09-24T14:58:36.627Z,16.60
2022-09-24T15:01:34.311Z,16.80
2022-09-24T15:04:31.214Z,13.80
2022-09-24T15:07:29.965Z,19.00
2022-09-24T15:10:27.516Z,20.80
2022-09-24T15:13:26.511Z,10.40
2022-09-24T15:16:35.985Z,14.60
2022-09-24T15:19:34.812Z,15.20
2022-09-24T15:22:32.750Z,16.20
2022-09-24T15:25:30.101Z,13.20
2022-09-24T15:28:29.262Z,10.60
2022-09-24T15:31:26.493Z,10.60
2022-09-24T15:34:23.363Z,12.40
2022-09-24T15:37:21.122Z,11.60
2022-09-24T15:40:23.226Z,16.40
2022-09-24T15:43:22.595Z,28.50
2022-09-24T15:46:19.444Z,21.50
2022-09-24T15:49:21.864Z,14.60
2022-09-24T15:52:26.908Z,16.40
2022-09-24T15:55:24.623Z,24.25
2022-09-24T15:58:22.168Z,31.00
2022-09-24T16:01:19.930Z,16.40
2022-09-24T16:04:17.483Z,16.75
2022-09-24T16:07:14.311Z,8.00
2022-09-24T16:10:11.952Z,3.20
2022-09-24T16:13:10.233Z,7.00
2022-09-24T16:16:08.323Z,7.00
2022-09-24T16:19:09.760Z,7.80
2022-09-24T16:22:07.389Z,4.40
2022-09-24T16:25:04.706Z,7.00
2022-09-24T16:28:02.397Z,7.40
2022-09-24T16:30:59.479Z,8.60
2022-09-24T16:33:56.543Z,11.80
2022-09-24T16:36:53.312Z,15.20
2022-09-24T16:39:50.496Z,8.40
2022-09-24T16:42:47.262Z,14.00
2022-09-24T16:45:44.597Z,14.00
2022-09-24T16:48:44.414Z,12.20
2022-09-24T16:51:41.348Z,10.80
2022-09-24T16:54:38.599Z,9.40
2022-09-24T16:57:38.793Z,11.20
2022-09-24T17:00:36.239Z,5.20
2022-09-24T17:03:33.981Z,10.00
2022-09-24T17:06:31.401Z,9.80
2022-09-24T17:09:47.051Z,10.00
2022-09-24T17:12:46.496Z,15.20
2022-09-24T17:15:43.370Z,8.00
2022-09-24T17:18:40.525Z,12.80
2022-09-24T17:21:38.221Z,14.00
2022-09-24T17:24:39.882Z,16.00
2022-09-24T17:27:37.557Z,15.00
2022-09-24T17:30:34.782Z,12.80
2022-09-24T17:33:47.176Z,9.20
2022-09-24T17:36:44.530Z,17.20
2022-09-24T17:39:42.042Z,25.80
2022-09-24T17:42:45.909Z,14.80
2022-09-24T17:45:43.449Z,14.60
2022-09-24T17:48:42.757Z,10.60
2022-09-24T17:51:39.466Z,19.00
2022-09-24T17:54:36.683Z,22.60
2022-09-24T17:57:33.381Z,20.80
2022-09-24T18:00:30.261Z,21.40
2022-09-24T18:03:27.808Z,17.80
2022-09-24T18:06:27.191Z,16.20
2022-09-24T18:09:30.179Z,22.00
2022-09-24T18:12:27.498Z,19.40
2022-09-24T18:15:25.465Z,26.40
2022-09-24T18:18:22.444Z,28.00
2022-09-24T18:21:21.093Z,29.00
2022-09-24T18:24:18.496Z,27.60
2022-09-24T18:27:16.128Z,28.20
2022-09-24T18:30:15.626Z,30.40
2022-09-24T18:33:12.629Z,23.00
2022-09-24T18:36:12.091Z,32.60
2022-09-24T18:39:14.757Z,21.60
2022-09-24T18:42:13.844Z,25.60
2022-09-24T18:45:10.890Z,33.80
2022-09-24T18:48:08.848Z,28.20
2022-09-24T18:51:05.700Z,34.60
2022-09-24T18:54:04.521Z,26.20
2022-09-24T18:57:02.250Z,32.20
2022-09-24T18:59:59.851Z,27.20
2022-09-24T19:02:57.003Z,36.40
2022-09-24T19:05:55.952Z,22.40
2022-09-24T19:08:53.829Z,30.40
2022-09-24T19:11:51.630Z,25.40
2022-09-24T19:14:49.747Z,33.20
2022-09-24T19:17:48.989Z,28.80
2022-09-24T19:20:48.592Z,31.20
2022-09-24T19:23:47.530Z,25.20
2022-09-24T19:26:44.885Z,23.80
2022-09-24T19:29:43.298Z,23.00
2022-09-24T19:32:40.355Z,17.20
2022-09-24T19:35:37.946Z,20.80
2022-09-24T19:38:35.729Z,19.40
2022-09-24T19:41:32.301Z,26.20
2022-09-24T19:44:29.547Z,21.00
2022-09-24T19:47:26.697Z,18.20
2022-09-24T19:50:25.485Z,18.00
2022-09-24T19:53:22.935Z,14.40
2022-09-24T19:56:23.635Z,18.60
2022-09-24T19:59:20.670Z,12.20
2022-09-24T20:02:17.707Z,11.40
2022-09-24T20:05:14.665Z,8.00
2022-09-24T20:08:15.930Z,0.60
2022-09-24T20:11:15.213Z,3.00
2022-09-24T20:14:13.325Z,7.00
2022-09-24T20:17:11.396Z,7.00
2022-09-24T20:20:09.820Z,6.20
2022-09-24T20:23:08.431Z,2.60
2022-09-24T20:26:23.942Z,1.00
2022-09-24T20:29:22.974Z,1.20
2022-09-24T20:32:20.674Z,1.00
2022-09-24T20:35:17.534Z,0.60
2022-09-24T20:38:14.968Z,1.00
2022-09-24T20:41:22.878Z,3.00
2022-09-24T20:44:21.510Z,0.80
2022-09-24T20:47:18.758Z,1.40
2022-09-24T20:50:17.943Z,2.00
2022-09-24T20:53:15.524Z,1.00
2022-09-24T20:56:12.634Z,3.40
2022-09-24T20:59:09.594Z,1.80
2022-09-24T21:02:07.536Z,3.40
2022-09-24T21:05:04.903Z,1.80
2022-09-24T21:08:05.768Z,3.40
2022-09-24T21:11:07.622Z,1.20
2022-09-24T21:14:05.178Z,2.20
2022-09-24T21:17:03.444Z,1.40
2022-09-24T21:20:01.073Z,2.20
2022-09-24T21:23:00.279Z,2.40
2022-09-24T21:25:57.541Z,1.00
2022-09-24T21:29:16.842Z,3.00
2022-09-24T21:32:19.302Z,2.40
2022-09-24T21:35:17.528Z,2.00
2022-09-24T21:38:19.277Z,1.80
2022-09-24T21:41:16.838Z,1.20
2022-09-24T21:44:17.914Z,1.60
2022-09-24T21:47:14.869Z,0.80
2022-09-24T21:50:11.462Z,1.60
2022-09-24T21:53:08.979Z,1.00
2022-09-24T21:56:07.007Z,4.80
2022-09-24T21:59:27.376Z,1.00
2022-09-24T22:02:25.243Z,3.40
2022-09-24T22:05:22.918Z,1.00
2022-09-24T22:08:21.284Z,1.00
2022-09-24T22:11:19.380Z,2.60
2022-09-24T22:14:16.894Z,0.20
2022-09-24T22:17:14.984Z,1.40
2022-09-24T22:20:13.398Z,4.00
2022-09-24T22:23:11.427Z,0.20
2022-09-24T22:26:09.471Z,1.00
2022-09-24T22:29:07.336Z,1.00
2022-09-24T22:32:04.879Z,2.00
2022-09-24T22:35:20.578Z,1.00
2022-09-24T22:38:18.143Z,1.20
2022-09-24T22:41:16.316Z,0.00
2022-09-24T22:44:14.050Z,1.00
2022-09-24T22:47:11.607Z,1.00
2022-09-24T22:50:09.677Z,1.60
2022-09-24T22:53:07.117Z,0.00
2022-09-24T22:56:12.843Z,2.00
2022-09-24T22:59:09.778Z,0.00
2022-09-24T23:02:12.309Z,1.00
2022-09-24T23:05:11.015Z,2.00
2022-09-24T23:08:07.963Z,1.20
2022-09-24T23:11:12.922Z,1.00
2022-09-24T23:14:15.758Z,1.00
2022-09-24T23:17:13.642Z,1.00
2022-09-24T23:20:10.674Z,1.40
2022-09-24T23:23:07.936Z,0.40
2022-09-24T23:26:18.024Z,2.00
2022-09-24T23:29:15.613Z,0.40
2022-09-24T23:32:13.132Z,1.00
2022-09-24T23:35:10.662Z,1.60
2022-09-24T23:38:07.709Z,0.20
2022-09-24T23:41:05.452Z,2.00
2022-09-24T23:44:03.411Z,0.60
2022-09-24T23:47:01.219Z,1.60
2022-09-24T23:49:58.917Z,2.00
2022-09-24T23:52:55.950Z,1.00
2022-09-24T23:55:54.171Z,0.80
2022-09-24T23:58:51.023Z,0.00
